sensor_id;sensor_type;location;lat;lon;timestamp;P1;durP1;ratioP1;P2;durP2;ratioP2
809;SDS011;387;48.772;9.186;2022-07-23T00:00:58;7.83;;;6.30;;
809;SDS011;387;48.772;9.186;2022-07-23T00:03:24;9.90;;;7.43;;
809;SDS011;387;48.772;9.186;2022-07-23T00:05:50;10.30;;;7.00;;
809;SDS011;387;48.772;9.186;2022-07-23T00:08:15;9.23;;;7.03;;
809;SDS011;387;48.772;9.186;2022-07-23T00:10:41;9.40;;;6.53;;
809;SDS011;387;48.772;9.186;2022-07-23T00:13:07;9.57;;;6.87;;
809;SDS011;387;48.772;9.186;2022-07-23T00:15:33;8.60;;;6.93;;
809;SDS011;387;48.772;9.186;2022-07-23T00:17:58;8.47;;;7.10;;
809;SDS011;387;48.772;9.186;2022-07-23T00:20:24;6.90;;;6.00;;
809;SDS011;387;48.772;9.186;2022-07-23T00:22:52;11.00;;;6.83;;
809;SDS011;387;48.772;9.186;2022-07-23T00:25:19;8.93;;;6.57;;
809;SDS011;387;48.772;9.186;2022-07-23T00:27:48;9.57;;;6.47;;
809;SDS011;387;48.772;9.186;2022-07-23T00:30:13;9.67;;;6.07;;
809;SDS011;387;48.772;9.186;2022-07-23T00:32:49;9.50;;;5.97;;
809;SDS011;387;48.772;9.186;2022-07-23T00:35:18;10.73;;;5.77;;
809;SDS011;387;48.772;9.186;2022-07-23T00:37:45;7.67;;;5.70;;
809;SDS011;387;48.772;9.186;2022-07-23T00:40:11;7.27;;;5.80;;
809;SDS011;387;48.772;9.186;2022-07-23T00:42:37;9.93;;;5.40;;
809;SDS011;387;48.772;9.186;2022-07-23T00:45:03;7.73;;;6.10;;
809;SDS011;387;48.772;9.186;2022-07-23T00:47:29;9.57;;;5.57;;
809;SDS011;387;48.772;9.186;2022-07-23T00:49:55;7.60;;;5.80;;
809;SDS011;387;48.772;9.186;2022-07-23T00:52:20;10.70;;;6.60;;
809;SDS011;387;48.772;9.186;2022-07-23T00:54:46;9.53;;;6.27;;
809;SDS011;387;48.772;9.186;2022-07-23T00:57:12;10.80;;;6.20;;
809;SDS011;387;48.772;9.186;2022-07-23T00:59:38;8.07;;;5.73;;
809;SDS011;387;48.772;9.186;2022-07-23T01:02:04;6.80;;;5.80;;
809;SDS011;387;48.772;9.186;2022-07-23T01:04:30;8.30;;;5.80;;
809;SDS011;387;48.772;9.186;2022-07-23T01:06:56;9.10;;;5.53;;
809;SDS011;387;48.772;9.186;2022-07-23T01:09:22;8.37;;;5.33;;
809;SDS011;387;48.772;9.186;2022-07-23T01:11:48;7.63;;;5.43;;
809;SDS011;387;48.772;9.186;2022-07-23T01:14:15;7.77;;;6.03;;
809;SDS011;387;48.772;9.186;2022-07-23T01:16:43;10.57;;;5.50;;
809;SDS011;387;48.772;9.186;2022-07-23T01:19:10;5.73;;;5.10;;
809;SDS011;387;48.772;9.186;2022-07-23T01:21:39;8.10;;;5.87;;
809;SDS011;387;48.772;9.186;2022-07-23T01:24:06;8.10;;;5.80;;
809;SDS011;387;48.772;9.186;2022-07-23T01:26:32;8.73;;;5.43;;
809;SDS011;387;48.772;9.186;2022-07-23T01:28:58;9.00;;;5.80;;
809;SDS011;387;48.772;9.186;2022-07-23T01:31:24;8.37;;;5.83;;
809;SDS011;387;48.772;9.186;2022-07-23T01:33:50;9.10;;;6.00;;
809;SDS011;387;48.772;9.186;2022-07-23T01:36:16;9.93;;;6.90;;
809;SDS011;387;48.772;9.186;2022-07-23T01:38:41;7.90;;;6.13;;
809;SDS011;387;48.772;9.186;2022-07-23T01:41:07;7.73;;;6.10;;
809;SDS011;387;48.772;9.186;2022-07-23T01:43:32;7.13;;;5.10;;
809;SDS011;387;48.772;9.186;2022-07-23T01:45:58;7.73;;;5.70;;
809;SDS011;387;48.772;9.186;2022-07-23T01:48:23;8.40;;;5.70;;
809;SDS011;387;48.772;9.186;2022-07-23T01:50:49;7.67;;;5.40;;
809;SDS011;387;48.772;9.186;2022-07-23T01:53:15;7.23;;;5.30;;
809;SDS011;387;48.772;9.186;2022-07-23T01:55:41;8.33;;;6.23;;
809;SDS011;387;48.772;9.186;2022-07-23T01:58:07;7.77;;;5.83;;
809;SDS011;387;48.772;9.186;2022-07-23T02:00:32;8.90;;;6.40;;
809;SDS011;387;48.772;9.186;2022-07-23T02:02:58;7.43;;;6.33;;
809;SDS011;387;48.772;9.186;2022-07-23T02:05:27;8.70;;;6.00;;
809;SDS011;387;48.772;9.186;2022-07-23T02:07:57;8.20;;;5.67;;
809;SDS011;387;48.772;9.186;2022-07-23T02:10:23;10.60;;;7.03;;
809;SDS011;387;48.772;9.186;2022-07-23T02:12:49;13.40;;;6.80;;
809;SDS011;387;48.772;9.186;2022-07-23T02:15:15;8.07;;;6.47;;
809;SDS011;387;48.772;9.186;2022-07-23T02:17:40;8.43;;;5.90;;
809;SDS011;387;48.772;9.186;2022-07-23T02:20:06;9.90;;;6.27;;
809;SDS011;387;48.772;9.186;2022-07-23T02:22:33;9.33;;;6.00;;
809;SDS011;387;48.772;9.186;2022-07-23T02:24:59;10.50;;;5.87;;
809;SDS011;387;48.772;9.186;2022-07-23T02:27:25;7.90;;;5.43;;
809;SDS011;387;48.772;9.186;2022-07-23T02:29:50;10.13;;;7.10;;
809;SDS011;387;48.772;9.186;2022-07-23T02:32:16;8.60;;;6.37;;
809;SDS011;387;48.772;9.186;2022-07-23T02:34:42;9.30;;;6.60;;
809;SDS011;387;48.772;9.186;2022-07-23T02:37:07;8.97;;;6.47;;
809;SDS011;387;48.772;9.186;2022-07-23T02:39:33;11.53;;;6.47;;
809;SDS011;387;48.772;9.186;2022-07-23T02:42:00;8.13;;;6.07;;
809;SDS011;387;48.772;9.186;2022-07-23T02:44:25;7.73;;;5.90;;
809;SDS011;387;48.772;9.186;2022-07-23T02:46:51;7.27;;;5.57;;
809;SDS011;387;48.772;9.186;2022-07-23T02:49:17;10.93;;;6.20;;
809;SDS011;387;48.772;9.186;2022-07-23T02:51:42;9.20;;;6.03;;
809;SDS011;387;48.772;9.186;2022-07-23T02:54:08;7.33;;;5.60;;
809;SDS011;387;48.772;9.186;2022-07-23T02:56:34;8.23;;;6.03;;
809;SDS011;387;48.772;9.186;2022-07-23T02:58:59;9.13;;;5.70;;
809;SDS011;387;48.772;9.186;2022-07-23T03:01:25;7.73;;;5.90;;
809;SDS011;387;48.772;9.186;2022-07-23T03:03:51;7.90;;;6.20;;
809;SDS011;387;48.772;9.186;2022-07-23T03:06:16;9.50;;;6.47;;
809;SDS011;387;48.772;9.186;2022-07-23T03:08:42;9.23;;;6.67;;
809;SDS011;387;48.772;9.186;2022-07-23T03:11:08;8.83;;;6.50;;
809;SDS011;387;48.772;9.186;2022-07-23T03:13:36;8.20;;;6.10;;
809;SDS011;387;48.772;9.186;2022-07-23T03:16:02;8.87;;;6.37;;
809;SDS011;387;48.772;9.186;2022-07-23T03:18:29;8.20;;;5.97;;
809;SDS011;387;48.772;9.186;2022-07-23T03:20:54;10.90;;;6.97;;
809;SDS011;387;48.772;9.186;2022-07-23T03:23:20;10.70;;;8.00;;
809;SDS011;387;48.772;9.186;2022-07-23T03:25:46;8.27;;;6.33;;
809;SDS011;387;48.772;9.186;2022-07-23T03:28:15;9.40;;;6.90;;
809;SDS011;387;48.772;9.186;2022-07-23T03:30:41;8.77;;;6.40;;
809;SDS011;387;48.772;9.186;2022-07-23T03:33:08;8.03;;;6.60;;
809;SDS011;387;48.772;9.186;2022-07-23T03:35:33;9.00;;;6.37;;
809;SDS011;387;48.772;9.186;2022-07-23T03:37:59;8.07;;;6.47;;
809;SDS011;387;48.772;9.186;2022-07-23T03:40:25;9.60;;;6.47;;
809;SDS011;387;48.772;9.186;2022-07-23T03:42:50;9.07;;;6.80;;
809;SDS011;387;48.772;9.186;2022-07-23T03:45:16;9.60;;;6.63;;
809;SDS011;387;48.772;9.186;2022-07-23T03:47:42;9.57;;;6.47;;
809;SDS011;387;48.772;9.186;2022-07-23T03:50:09;11.03;;;6.73;;
809;SDS011;387;48.772;9.186;2022-07-23T03:52:35;9.43;;;6.70;;
809;SDS011;387;48.772;9.186;2022-07-23T03:55:01;8.70;;;6.47;;
809;SDS011;387;48.772;9.186;2022-07-23T03:57:28;9.97;;;6.70;;
809;SDS011;387;48.772;9.186;2022-07-23T03:59:54;10.50;;;7.00;;
809;SDS011;387;48.772;9.186;2022-07-23T04:02:20;11.70;;;7.00;;
809;SDS011;387;48.772;9.186;2022-07-23T04:04:45;8.60;;;6.30;;
809;SDS011;387;48.772;9.186;2022-07-23T04:07:11;11.07;;;7.30;;
809;SDS011;387;48.772;9.186;2022-07-23T04:09:37;9.73;;;6.73;;
809;SDS011;387;48.772;9.186;2022-07-23T04:12:05;11.87;;;6.43;;
809;SDS011;387;48.772;9.186;2022-07-23T04:14:31;11.57;;;7.23;;
809;SDS011;387;48.772;9.186;2022-07-23T04:16:57;9.10;;;6.80;;
809;SDS011;387;48.772;9.186;2022-07-23T04:19:22;9.70;;;7.00;;
809;SDS011;387;48.772;9.186;2022-07-23T04:21:48;10.30;;;7.10;;
809;SDS011;387;48.772;9.186;2022-07-23T04:24:14;7.97;;;6.10;;
809;SDS011;387;48.772;9.186;2022-07-23T04:26:39;10.20;;;6.93;;
809;SDS011;387;48.772;9.186;2022-07-23T04:29:05;9.03;;;6.90;;
809;SDS011;387;48.772;9.186;2022-07-23T04:31:30;12.67;;;7.40;;
809;SDS011;387;48.772;9.186;2022-07-23T04:33:56;8.33;;;6.90;;
809;SDS011;387;48.772;9.186;2022-07-23T04:36:21;10.83;;;6.57;;
809;SDS011;387;48.772;9.186;2022-07-23T04:38:47;10.80;;;7.03;;
809;SDS011;387;48.772;9.186;2022-07-23T04:41:13;8.00;;;6.30;;
809;SDS011;387;48.772;9.186;2022-07-23T04:43:38;9.73;;;6.63;;
809;SDS011;387;48.772;9.186;2022-07-23T04:46:04;11.13;;;6.60;;
809;SDS011;387;48.772;9.186;2022-07-23T04:48:30;12.53;;;7.27;;
809;SDS011;387;48.772;9.186;2022-07-23T04:50:56;10.00;;;6.23;;
809;SDS011;387;48.772;9.186;2022-07-23T04:53:22;10.03;;;7.17;;
809;SDS011;387;48.772;9.186;2022-07-23T04:55:48;8.97;;;6.60;;
809;SDS011;387;48.772;9.186;2022-07-23T04:58:13;9.83;;;7.63;;
809;SDS011;387;48.772;9.186;2022-07-23T05:00:39;9.00;;;7.00;;
809;SDS011;387;48.772;9.186;2022-07-23T05:03:05;11.70;;;7.23;;
809;SDS011;387;48.772;9.186;2022-07-23T05:05:30;9.90;;;7.03;;
809;SDS011;387;48.772;9.186;2022-07-23T05:07:56;9.80;;;6.70;;
809;SDS011;387;48.772;9.186;2022-07-23T05:10:21;9.23;;;6.83;;
809;SDS011;387;48.772;9.186;2022-07-23T05:12:47;9.30;;;7.17;;
809;SDS011;387;48.772;9.186;2022-07-23T05:15:12;12.90;;;7.37;;
809;SDS011;387;48.772;9.186;2022-07-23T05:17:38;12.73;;;7.87;;
809;SDS011;387;48.772;9.186;2022-07-23T05:20:04;13.10;;;7.13;;
809;SDS011;387;48.772;9.186;2022-07-23T05:22:30;8.60;;;5.73;;
809;SDS011;387;48.772;9.186;2022-07-23T05:24:55;9.60;;;6.67;;
809;SDS011;387;48.772;9.186;2022-07-23T05:27:21;8.37;;;6.63;;
809;SDS011;387;48.772;9.186;2022-07-23T05:29:48;9.90;;;6.70;;
809;SDS011;387;48.772;9.186;2022-07-23T05:32:13;10.27;;;6.47;;
809;SDS011;387;48.772;9.186;2022-07-23T05:34:39;8.57;;;7.03;;
809;SDS011;387;48.772;9.186;2022-07-23T05:37:05;11.07;;;6.77;;
809;SDS011;387;48.772;9.186;2022-07-23T05:39:31;10.43;;;7.37;;
809;SDS011;387;48.772;9.186;2022-07-23T05:41:56;10.37;;;6.87;;
809;SDS011;387;48.772;9.186;2022-07-23T05:44:22;8.97;;;7.20;;
809;SDS011;387;48.772;9.186;2022-07-23T05:46:48;10.90;;;7.43;;
809;SDS011;387;48.772;9.186;2022-07-23T05:49:14;11.37;;;6.80;;
809;SDS011;387;48.772;9.186;2022-07-23T05:51:39;9.07;;;7.03;;
809;SDS011;387;48.772;9.186;2022-07-23T05:54:05;10.70;;;7.80;;
809;SDS011;387;48.772;9.186;2022-07-23T05:56:31;9.20;;;6.80;;
809;SDS011;387;48.772;9.186;2022-07-23T05:58:56;9.30;;;7.30;;
809;SDS011;387;48.772;9.186;2022-07-23T06:01:22;11.37;;;7.60;;
809;SDS011;387;48.772;9.186;2022-07-23T06:03:48;9.03;;;7.53;;
809;SDS011;387;48.772;9.186;2022-07-23T06:06:13;10.40;;;7.37;;
809;SDS011;387;48.772;9.186;2022-07-23T06:08:39;10.83;;;7.10;;
809;SDS011;387;48.772;9.186;2022-07-23T06:11:04;10.10;;;7.10;;
809;SDS011;387;48.772;9.186;2022-07-23T06:13:30;10.93;;;7.67;;
809;SDS011;387;48.772;9.186;2022-07-23T06:15:56;10.57;;;6.90;;
809;SDS011;387;48.772;9.186;2022-07-23T06:18:21;11.60;;;7.53;;
809;SDS011;387;48.772;9.186;2022-07-23T06:20:47;11.03;;;8.50;;
809;SDS011;387;48.772;9.186;2022-07-23T06:23:13;10.57;;;8.03;;
809;SDS011;387;48.772;9.186;2022-07-23T06:25:38;12.57;;;8.40;;
809;SDS011;387;48.772;9.186;2022-07-23T06:28:04;10.27;;;7.17;;
809;SDS011;387;48.772;9.186;2022-07-23T06:30:30;12.00;;;7.43;;
809;SDS011;387;48.772;9.186;2022-07-23T06:32:55;10.20;;;7.40;;
809;SDS011;387;48.772;9.186;2022-07-23T06:35:21;9.40;;;7.20;;
809;SDS011;387;48.772;9.186;2022-07-23T06:37:47;12.90;;;7.90;;
809;SDS011;387;48.772;9.186;2022-07-23T06:40:13;10.20;;;7.20;;
809;SDS011;387;48.772;9.186;2022-07-23T06:42:38;11.50;;;7.57;;
809;SDS011;387;48.772;9.186;2022-07-23T06:45:05;10.20;;;7.80;;
809;SDS011;387;48.772;9.186;2022-07-23T06:47:31;11.43;;;7.07;;
809;SDS011;387;48.772;9.186;2022-07-23T06:49:57;12.40;;;7.90;;
809;SDS011;387;48.772;9.186;2022-07-23T06:52:23;10.70;;;8.53;;
809;SDS011;387;48.772;9.186;2022-07-23T06:54:49;10.73;;;7.57;;
809;SDS011;387;48.772;9.186;2022-07-23T06:57:14;12.97;;;8.20;;
809;SDS011;387;48.772;9.186;2022-07-23T06:59:40;10.40;;;7.07;;
809;SDS011;387;48.772;9.186;2022-07-23T07:02:06;11.50;;;8.40;;
809;SDS011;387;48.772;9.186;2022-07-23T07:04:33;11.60;;;8.53;;
809;SDS011;387;48.772;9.186;2022-07-23T07:06:59;12.07;;;7.73;;
809;SDS011;387;48.772;9.186;2022-07-23T07:09:24;11.53;;;8.23;;
809;SDS011;387;48.772;9.186;2022-07-23T07:11:50;9.50;;;7.53;;
809;SDS011;387;48.772;9.186;2022-07-23T07:14:16;14.57;;;8.23;;
809;SDS011;387;48.772;9.186;2022-07-23T07:16:41;13.90;;;8.30;;
809;SDS011;387;48.772;9.186;2022-07-23T07:19:07;13.27;;;8.80;;
809;SDS011;387;48.772;9.186;2022-07-23T07:21:32;12.83;;;7.80;;
809;SDS011;387;48.772;9.186;2022-07-23T07:23:58;12.73;;;7.43;;
809;SDS011;387;48.772;9.186;2022-07-23T07:26:24;13.20;;;8.17;;
809;SDS011;387;48.772;9.186;2022-07-23T07:28:49;13.67;;;8.00;;
809;SDS011;387;48.772;9.186;2022-07-23T07:31:15;10.00;;;7.40;;
809;SDS011;387;48.772;9.186;2022-07-23T07:33:41;11.57;;;7.90;;
809;SDS011;387;48.772;9.186;2022-07-23T07:36:07;10.53;;;7.50;;
809;SDS011;387;48.772;9.186;2022-07-23T07:38:33;11.00;;;8.17;;
809;SDS011;387;48.772;9.186;2022-07-23T07:40:59;13.80;;;10.17;;
809;SDS011;387;48.772;9.186;2022-07-23T07:43:24;15.07;;;8.40;;
809;SDS011;387;48.772;9.186;2022-07-23T07:45:50;11.73;;;8.23;;
809;SDS011;387;48.772;9.186;2022-07-23T07:48:16;13.43;;;8.83;;
809;SDS011;387;48.772;9.186;2022-07-23T07:50:41;12.77;;;8.40;;
809;SDS011;387;48.772;9.186;2022-07-23T07:53:07;11.90;;;7.93;;
809;SDS011;387;48.772;9.186;2022-07-23T07:55:33;11.13;;;8.10;;
809;SDS011;387;48.772;9.186;2022-07-23T07:57:59;10.90;;;8.00;;
809;SDS011;387;48.772;9.186;2022-07-23T08:00:25;11.20;;;7.70;;
809;SDS011;387;48.772;9.186;2022-07-23T08:02:51;16.57;;;10.57;;
809;SDS011;387;48.772;9.186;2022-07-23T08:05:19;19.47;;;11.57;;
809;SDS011;387;48.772;9.186;2022-07-23T08:07:46;20.03;;;10.83;;
809;SDS011;387;48.772;9.186;2022-07-23T08:10:12;14.80;;;9.97;;
809;SDS011;387;48.772;9.186;2022-07-23T08:12:38;11.27;;;7.67;;
809;SDS011;387;48.772;9.186;2022-07-23T08:15:09;13.13;;;9.20;;
809;SDS011;387;48.772;9.186;2022-07-23T08:17:36;10.53;;;7.50;;
809;SDS011;387;48.772;9.186;2022-07-23T08:20:06;11.70;;;7.37;;
809;SDS011;387;48.772;9.186;2022-07-23T08:25:23;11.50;;;8.77;;
809;SDS011;387;48.772;9.186;2022-07-23T08:27:50;13.50;;;8.80;;
809;SDS011;387;48.772;9.186;2022-07-23T08:30:16;12.67;;;8.90;;
809;SDS011;387;48.772;9.186;2022-07-23T08:32:50;12.90;;;8.97;;
809;SDS011;387;48.772;9.186;2022-07-23T08:35:31;12.67;;;8.67;;
809;SDS011;387;48.772;9.186;2022-07-23T08:37:59;12.50;;;7.47;;
809;SDS011;387;48.772;9.186;2022-07-23T08:40:27;12.00;;;7.87;;
809;SDS011;387;48.772;9.186;2022-07-23T08:42:53;9.67;;;7.63;;
809;SDS011;387;48.772;9.186;2022-07-23T08:45:20;9.73;;;7.27;;
809;SDS011;387;48.772;9.186;2022-07-23T08:47:54;9.80;;;7.80;;
809;SDS011;387;48.772;9.186;2022-07-23T08:50:22;11.50;;;7.70;;
809;SDS011;387;48.772;9.186;2022-07-23T08:52:48;14.70;;;7.60;;
809;SDS011;387;48.772;9.186;2022-07-23T08:55:19;10.27;;;7.60;;
809;SDS011;387;48.772;9.186;2022-07-23T08:57:47;10.93;;;7.83;;
809;SDS011;387;48.772;9.186;2022-07-23T09:00:13;10.43;;;6.70;;
809;SDS011;387;48.772;9.186;2022-07-23T09:02:40;10.80;;;7.33;;
809;SDS011;387;48.772;9.186;2022-07-23T09:05:07;10.90;;;7.47;;
809;SDS011;387;48.772;9.186;2022-07-23T09:07:35;11.10;;;7.97;;
809;SDS011;387;48.772;9.186;2022-07-23T09:10:08;10.53;;;6.87;;
809;SDS011;387;48.772;9.186;2022-07-23T09:12:35;9.87;;;7.53;;
809;SDS011;387;48.772;9.186;2022-07-23T09:15:06;9.60;;;7.50;;
809;SDS011;387;48.772;9.186;2022-07-23T09:17:37;11.93;;;7.50;;
809;SDS011;387;48.772;9.186;2022-07-23T09:20:12;11.80;;;7.30;;
809;SDS011;387;48.772;9.186;2022-07-23T09:22:46;8.77;;;7.47;;
809;SDS011;387;48.772;9.186;2022-07-23T09:25:14;10.07;;;7.67;;
809;SDS011;387;48.772;9.186;2022-07-23T09:27:45;9.10;;;7.10;;
809;SDS011;387;48.772;9.186;2022-07-23T09:30:12;10.47;;;8.00;;
809;SDS011;387;48.772;9.186;2022-07-23T09:32:39;9.63;;;7.57;;
809;SDS011;387;48.772;9.186;2022-07-23T09:35:05;11.33;;;7.53;;
809;SDS011;387;48.772;9.186;2022-07-23T09:37:30;11.03;;;7.03;;
809;SDS011;387;48.772;9.186;2022-07-23T09:40:03;10.03;;;6.97;;
809;SDS011;387;48.772;9.186;2022-07-23T09:42:31;11.10;;;8.03;;
809;SDS011;387;48.772;9.186;2022-07-23T09:44:57;10.27;;;8.00;;
809;SDS011;387;48.772;9.186;2022-07-23T09:47:24;8.83;;;7.30;;
809;SDS011;387;48.772;9.186;2022-07-23T09:49:58;10.27;;;7.70;;
809;SDS011;387;48.772;9.186;2022-07-23T09:52:26;11.23;;;8.07;;
809;SDS011;387;48.772;9.186;2022-07-23T09:54:59;13.53;;;8.30;;
809;SDS011;387;48.772;9.186;2022-07-23T09:57:27;9.83;;;8.00;;
809;SDS011;387;48.772;9.186;2022-07-23T09:59:53;9.57;;;7.73;;
809;SDS011;387;48.772;9.186;2022-07-23T10:02:24;10.63;;;7.70;;
809;SDS011;387;48.772;9.186;2022-07-23T10:04:53;12.23;;;8.53;;
809;SDS011;387;48.772;9.186;2022-07-23T10:07:21;12.67;;;8.37;;
809;SDS011;387;48.772;9.186;2022-07-23T10:09:48;12.70;;;8.10;;
809;SDS011;387;48.772;9.186;2022-07-23T10:12:17;13.33;;;8.97;;
809;SDS011;387;48.772;9.186;2022-07-23T10:15:03;11.50;;;8.50;;
809;SDS011;387;48.772;9.186;2022-07-23T10:17:31;10.00;;;8.00;;
809;SDS011;387;48.772;9.186;2022-07-23T10:19:56;11.17;;;8.90;;
809;SDS011;387;48.772;9.186;2022-07-23T10:22:23;11.03;;;8.03;;
809;SDS011;387;48.772;9.186;2022-07-23T10:30:04;13.30;;;8.40;;
809;SDS011;387;48.772;9.186;2022-07-23T10:38:11;11.20;;;8.20;;
809;SDS011;387;48.772;9.186;2022-07-23T10:40:53;13.13;;;8.70;;
809;SDS011;387;48.772;9.186;2022-07-23T10:43:19;9.17;;;7.50;;
809;SDS011;387;48.772;9.186;2022-07-23T10:45:45;12.20;;;8.17;;
809;SDS011;387;48.772;9.186;2022-07-23T10:48:11;8.50;;;7.23;;
809;SDS011;387;48.772;9.186;2022-07-23T10:50:42;9.07;;;6.60;;
809;SDS011;387;48.772;9.186;2022-07-23T10:53:14;10.27;;;7.43;;
809;SDS011;387;48.772;9.186;2022-07-23T10:55:46;10.70;;;6.83;;
809;SDS011;387;48.772;9.186;2022-07-23T10:58:17;8.73;;;7.23;;
809;SDS011;387;48.772;9.186;2022-07-23T11:00:44;10.27;;;7.47;;
809;SDS011;387;48.772;9.186;2022-07-23T11:03:27;9.90;;;6.97;;
809;SDS011;387;48.772;9.186;2022-07-23T11:05:54;8.13;;;6.97;;
809;SDS011;387;48.772;9.186;2022-07-23T11:08:20;8.73;;;7.67;;
809;SDS011;387;48.772;9.186;2022-07-23T11:16:30;10.20;;;7.53;;
809;SDS011;387;48.772;9.186;2022-07-23T11:35:00;11.63;;;8.43;;
809;SDS011;387;48.772;9.186;2022-07-23T11:37:08;12.80;;;8.20;;
809;SDS011;387;48.772;9.186;2022-07-23T11:39:37;9.70;;;8.10;;
809;SDS011;387;48.772;9.186;2022-07-23T11:42:05;10.97;;;7.90;;
809;SDS011;387;48.772;9.186;2022-07-23T11:44:35;12.63;;;8.63;;
809;SDS011;387;48.772;9.186;2022-07-23T11:47:03;11.87;;;7.80;;
809;SDS011;387;48.772;9.186;2022-07-23T11:49:31;10.10;;;7.63;;
809;SDS011;387;48.772;9.186;2022-07-23T11:52:07;10.20;;;8.20;;
809;SDS011;387;48.772;9.186;2022-07-23T11:54:53;10.43;;;7.87;;
809;SDS011;387;48.772;9.186;2022-07-23T11:57:28;8.17;;;6.40;;
809;SDS011;387;48.772;9.186;2022-07-23T12:00:08;9.70;;;7.57;;
809;SDS011;387;48.772;9.186;2022-07-23T12:02:49;11.87;;;8.40;;
809;SDS011;387;48.772;9.186;2022-07-23T12:05:18;11.50;;;8.40;;
809;SDS011;387;48.772;9.186;2022-07-23T12:07:49;9.50;;;7.33;;
809;SDS011;387;48.772;9.186;2022-07-23T12:15:13;11.13;;;8.60;;
809;SDS011;387;48.772;9.186;2022-07-23T12:17:40;10.73;;;8.30;;
809;SDS011;387;48.772;9.186;2022-07-23T12:20:09;9.93;;;8.10;;
809;SDS011;387;48.772;9.186;2022-07-23T12:22:39;12.00;;;8.87;;
809;SDS011;387;48.772;9.186;2022-07-23T12:25:10;14.00;;;7.93;;
809;SDS011;387;48.772;9.186;2022-07-23T12:27:37;10.93;;;8.10;;
809;SDS011;387;48.772;9.186;2022-07-23T12:33:09;10.00;;;8.47;;
809;SDS011;387;48.772;9.186;2022-07-23T12:38:07;10.97;;;8.53;;
809;SDS011;387;48.772;9.186;2022-07-23T12:40:44;14.70;;;8.83;;
809;SDS011;387;48.772;9.186;2022-07-23T12:43:17;9.33;;;8.40;;
809;SDS011;387;48.772;9.186;2022-07-23T12:45:49;13.07;;;9.73;;
809;SDS011;387;48.772;9.186;2022-07-23T12:48:20;12.13;;;9.03;;
809;SDS011;387;48.772;9.186;2022-07-23T12:53:32;11.33;;;8.70;;
809;SDS011;387;48.772;9.186;2022-07-23T12:56:12;11.70;;;9.00;;
809;SDS011;387;48.772;9.186;2022-07-23T12:59:24;9.70;;;9.00;;
809;SDS011;387;48.772;9.186;2022-07-23T13:01:28;12.33;;;9.10;;
809;SDS011;387;48.772;9.186;2022-07-23T13:06:24;13.47;;;8.70;;
809;SDS011;387;48.772;9.186;2022-07-23T13:08:50;15.20;;;9.33;;
809;SDS011;387;48.772;9.186;2022-07-23T13:11:16;11.67;;;9.23;;
809;SDS011;387;48.772;9.186;2022-07-23T13:13:42;12.73;;;9.13;;
809;SDS011;387;48.772;9.186;2022-07-23T13:16:07;11.03;;;8.03;;
809;SDS011;387;48.772;9.186;2022-07-23T13:18:33;12.60;;;8.50;;
809;SDS011;387;48.772;9.186;2022-07-23T13:20:59;10.97;;;7.63;;
809;SDS011;387;48.772;9.186;2022-07-23T13:23:25;12.40;;;8.50;;
809;SDS011;387;48.772;9.186;2022-07-23T13:25:51;10.87;;;8.50;;
809;SDS011;387;48.772;9.186;2022-07-23T13:28:17;12.70;;;8.70;;
809;SDS011;387;48.772;9.186;2022-07-23T13:30:44;11.03;;;9.10;;
809;SDS011;387;48.772;9.186;2022-07-23T13:33:11;9.23;;;8.53;;
809;SDS011;387;48.772;9.186;2022-07-23T13:35:36;11.27;;;9.03;;
809;SDS011;387;48.772;9.186;2022-07-23T13:38:03;11.50;;;9.37;;
809;SDS011;387;48.772;9.186;2022-07-23T13:40:32;14.23;;;7.97;;
809;SDS011;387;48.772;9.186;2022-07-23T13:42:59;12.63;;;9.43;;
809;SDS011;387;48.772;9.186;2022-07-23T13:45:24;11.73;;;8.87;;
809;SDS011;387;48.772;9.186;2022-07-23T13:47:50;10.63;;;9.00;;
809;SDS011;387;48.772;9.186;2022-07-23T13:50:16;11.93;;;9.33;;
809;SDS011;387;48.772;9.186;2022-07-23T13:52:42;14.70;;;9.20;;
809;SDS011;387;48.772;9.186;2022-07-23T13:55:08;12.07;;;9.50;;
809;SDS011;387;48.772;9.186;2022-07-23T13:57:34;13.73;;;9.27;;
809;SDS011;387;48.772;9.186;2022-07-23T13:59:59;17.27;;;9.50;;
809;SDS011;387;48.772;9.186;2022-07-23T14:02:25;12.30;;;9.33;;
809;SDS011;387;48.772;9.186;2022-07-23T14:04:51;11.20;;;9.57;;
809;SDS011;387;48.772;9.186;2022-07-23T14:07:18;12.90;;;9.70;;
809;SDS011;387;48.772;9.186;2022-07-23T14:09:44;12.47;;;8.80;;
809;SDS011;387;48.772;9.186;2022-07-23T14:12:09;12.73;;;8.90;;
809;SDS011;387;48.772;9.186;2022-07-23T14:14:35;12.77;;;9.77;;
809;SDS011;387;48.772;9.186;2022-07-23T14:17:01;12.10;;;9.70;;
809;SDS011;387;48.772;9.186;2022-07-23T14:19:27;14.07;;;9.77;;
809;SDS011;387;48.772;9.186;2022-07-23T14:21:53;13.27;;;9.60;;
809;SDS011;387;48.772;9.186;2022-07-23T14:24:18;12.63;;;9.50;;
809;SDS011;387;48.772;9.186;2022-07-23T14:26:44;11.40;;;8.97;;
809;SDS011;387;48.772;9.186;2022-07-23T14:29:11;12.03;;;9.10;;
809;SDS011;387;48.772;9.186;2022-07-23T14:31:36;11.83;;;8.90;;
809;SDS011;387;48.772;9.186;2022-07-23T14:34:02;10.93;;;8.90;;
809;SDS011;387;48.772;9.186;2022-07-23T14:36:28;12.90;;;8.97;;
809;SDS011;387;48.772;9.186;2022-07-23T14:38:54;12.10;;;9.70;;
809;SDS011;387;48.772;9.186;2022-07-23T14:41:20;13.90;;;9.83;;
809;SDS011;387;48.772;9.186;2022-07-23T14:43:45;15.10;;;9.40;;
809;SDS011;387;48.772;9.186;2022-07-23T14:46:11;13.00;;;9.80;;
809;SDS011;387;48.772;9.186;2022-07-23T14:48:38;13.07;;;9.90;;
809;SDS011;387;48.772;9.186;2022-07-23T14:51:04;12.93;;;9.30;;
809;SDS011;387;48.772;9.186;2022-07-23T14:53:30;12.33;;;9.80;;
809;SDS011;387;48.772;9.186;2022-07-23T14:55:56;13.87;;;9.20;;
809;SDS011;387;48.772;9.186;2022-07-23T14:58:22;11.00;;;8.83;;
809;SDS011;387;48.772;9.186;2022-07-23T15:00:48;13.33;;;9.77;;
809;SDS011;387;48.772;9.186;2022-07-23T15:03:14;12.63;;;9.10;;
809;SDS011;387;48.772;9.186;2022-07-23T15:05:40;12.10;;;9.17;;
809;SDS011;387;48.772;9.186;2022-07-23T15:08:06;14.20;;;9.17;;
809;SDS011;387;48.772;9.186;2022-07-23T15:10:31;12.50;;;8.97;;
809;SDS011;387;48.772;9.186;2022-07-23T15:12:57;13.33;;;9.13;;
809;SDS011;387;48.772;9.186;2022-07-23T15:15:22;10.50;;;8.67;;
809;SDS011;387;48.772;9.186;2022-07-23T15:17:48;12.87;;;9.50;;
809;SDS011;387;48.772;9.186;2022-07-23T15:20:14;11.43;;;9.10;;
809;SDS011;387;48.772;9.186;2022-07-23T15:22:39;13.90;;;9.23;;
809;SDS011;387;48.772;9.186;2022-07-23T15:25:05;9.70;;;8.43;;
809;SDS011;387;48.772;9.186;2022-07-23T15:27:31;11.80;;;9.33;;
809;SDS011;387;48.772;9.186;2022-07-23T15:29:57;11.80;;;10.27;;
809;SDS011;387;48.772;9.186;2022-07-23T15:32:23;12.97;;;9.03;;
809;SDS011;387;48.772;9.186;2022-07-23T15:34:51;13.00;;;9.03;;
809;SDS011;387;48.772;9.186;2022-07-23T15:37:17;11.63;;;9.70;;
809;SDS011;387;48.772;9.186;2022-07-23T15:39:43;13.70;;;9.23;;
809;SDS011;387;48.772;9.186;2022-07-23T15:42:09;11.53;;;9.60;;
809;SDS011;387;48.772;9.186;2022-07-23T15:44:35;13.93;;;9.90;;
809;SDS011;387;48.772;9.186;2022-07-23T15:47:00;13.37;;;9.60;;
809;SDS011;387;48.772;9.186;2022-07-23T15:49:26;12.50;;;9.47;;
809;SDS011;387;48.772;9.186;2022-07-23T15:51:52;10.87;;;8.33;;
809;SDS011;387;48.772;9.186;2022-07-23T15:54:19;12.30;;;9.30;;
809;SDS011;387;48.772;9.186;2022-07-23T15:56:45;13.77;;;9.80;;
809;SDS011;387;48.772;9.186;2022-07-23T15:59:11;11.30;;;9.50;;
809;SDS011;387;48.772;9.186;2022-07-23T16:01:37;14.57;;;10.13;;
809;SDS011;387;48.772;9.186;2022-07-23T16:04:03;12.47;;;9.70;;
809;SDS011;387;48.772;9.186;2022-07-23T16:06:29;11.30;;;8.80;;
809;SDS011;387;48.772;9.186;2022-07-23T16:08:57;14.43;;;10.20;;
809;SDS011;387;48.772;9.186;2022-07-23T16:11:23;12.13;;;10.43;;
809;SDS011;387;48.772;9.186;2022-07-23T16:13:48;16.00;;;10.77;;
809;SDS011;387;48.772;9.186;2022-07-23T16:16:14;13.07;;;10.77;;
809;SDS011;387;48.772;9.186;2022-07-23T16:18:40;11.77;;;9.53;;
809;SDS011;387;48.772;9.186;2022-07-23T16:21:05;13.23;;;10.30;;
809;SDS011;387;48.772;9.186;2022-07-23T16:23:31;11.17;;;9.20;;